Time;durP1;ratioP1;P1;durP2;ratioP2;P2;SDS_P1;SDS_P2;PMS_P1;PMS_P2;Temp;Humidity;BMP_temperature;BMP_pressure;BME280_temperature;BME280_humidity;BME280_pressure;Samples;Min_cycle;Max_cycle;Signal;HPM_P1;HPM_P2
2022/07/16 00:01:22;;;;;;;2.47;2.37;;;19.20;61.30;;;;;;5011472;28;21056;-66
2022/07/16 00:01:48;;;;;;;2.80;2.70;;;19.20;61.40;;;;;;5010578;28;21150;-66
2022/07/16 00:04:15;;;;;;;3.10;2.43;;;19.20;61.00;;;;;;5009968;28;20748;-65
2022/07/16 00:06:43;;;;;;;3.10;2.80;;;19.20;61.00;;;;;;5010003;28;21202;-66
2022/07/16 00:09:13;;;;;;;2.40;2.30;;;19.20;61.20;;;;;;5009693;28;20688;-66
2022/07/16 00:11:40;;;;;;;2.60;2.40;;;19.10;61.30;;;;;;5011970;28;20638;-65
2022/07/16 00:14:06;;;;;;;5.00;3.33;;;19.00;61.40;;;;;;5012119;28;21138;-65
2022/07/16 00:16:33;;;;;;;2.87;2.67;;;19.00;61.30;;;;;;5012928;28;20656;-69
2022/07/16 00:19:19;;;;;;;2.90;2.70;;;19.00;61.60;;;;;;5010338;28;20638;-65
2022/07/16 00:21:48;;;;;;;5.57;3.30;;;19.00;61.50;;;;;;5011806;28;20777;-66
2022/07/16 00:24:16;;;;;;;3.17;2.90;;;18.90;61.40;;;;;;5010124;28;20737;-64
2022/07/16 00:26:43;;;;;;;3.03;2.83;;;18.90;61.60;;;;;;5012061;28;20600;-65
2022/07/16 00:29:10;;;;;;;2.80;2.60;;;18.80;61.60;;;;;;5010591;28;20622;-67
2022/07/16 00:31:37;;;;;;;2.60;2.50;;;18.80;61.80;;;;;;5009093;28;20772;-66
2022/07/16 00:34:08;;;;;;;3.57;2.90;;;18.80;61.80;;;;;;5011572;28;20717;-68
2022/07/16 00:36:35;;;;;;;3.53;3.10;;;18.70;61.80;;;;;;5011602;28;20622;-66
2022/07/16 00:39:04;;;;;;;2.90;2.70;;;18.70;62.00;;;;;;5009938;28;20641;-65
2022/07/16 00:41:31;;;;;;;2.77;2.60;;;18.60;62.10;;;;;;5011982;28;20622;-65
2022/07/16 00:44:05;;;;;;;3.33;3.07;;;18.60;62.10;;;;;;5011563;28;21126;-66
2022/07/16 00:46:32;;;;;;;3.50;2.80;;;18.60;62.20;;;;;;5012405;28;20624;-66
2022/07/16 00:48:59;;;;;;;2.73;2.53;;;18.60;62.30;;;;;;5011561;28;20620;-66
2022/07/16 00:51:26;;;;;;;3.00;2.80;;;18.60;62.50;;;;;;5007618;28;20669;-66
2022/07/16 00:53:54;;;;;;;2.87;2.70;;;18.50;62.60;;;;;;5009159;28;20890;-67
2022/07/16 00:56:22;;;;;;;2.70;2.50;;;18.50;62.80;;;;;;5008671;28;20652;-66
2022/07/16 00:58:51;;;;;;;3.23;2.70;;;18.40;62.80;;;;;;5003972;28;20626;-67
2022/07/16 01:01:19;;;;;;;4.27;2.80;;;18.40;63.00;;;;;;5008486;28;20634;-68
2022/07/16 01:03:46;;;;;;;2.50;2.20;;;18.40;63.10;;;;;;4993137;28;20582;-67
2022/07/16 01:06:14;;;;;;;4.40;2.33;;;18.40;63.10;;;;;;5010519;28;20672;-67
2022/07/16 01:08:44;;;;;;;3.43;3.00;;;18.40;63.20;;;;;;4991951;28;20638;-67
2022/07/16 01:11:13;;;;;;;2.47;2.27;;;18.40;63.40;;;;;;4993867;28;20660;-67
2022/07/16 01:13:42;;;;;;;3.20;2.90;;;18.30;63.50;;;;;;4993406;28;20606;-66
2022/07/16 01:16:10;;;;;;;3.30;2.40;;;18.30;63.60;;;;;;5012031;28;20717;-66
2022/07/16 01:18:38;;;;;;;2.50;2.30;;;18.30;63.90;;;;;;5009494;28;20652;-67
2022/07/16 01:21:05;;;;;;;2.50;2.40;;;18.30;64.00;;;;;;4990645;28;20622;-66
2022/07/16 01:23:32;;;;;;;2.60;2.40;;;18.20;64.00;;;;;;4992760;28;20669;-66
2022/07/16 01:25:59;;;;;;;3.37;2.87;;;18.20;64.10;;;;;;5010143;28;20594;-66
2022/07/16 01:28:26;;;;;;;3.00;2.60;;;18.20;64.10;;;;;;5010143;28;20618;-68
2022/07/16 01:30:53;;;;;;;5.47;2.67;;;18.20;64.30;;;;;;5011270;28;20668;-66
2022/07/16 01:33:25;;;;;;;2.50;2.40;;;18.20;64.30;;;;;;5006721;28;21819;-65
2022/07/16 01:35:56;;;;;;;2.30;2.20;;;18.30;64.00;;;;;;5003955;28;20707;-66
2022/07/16 01:38:24;;;;;;;2.47;2.37;;;18.30;64.00;;;;;;5009154;28;20721;-68
2022/07/16 01:40:51;;;;;;;4.70;3.07;;;18.20;64.10;;;;;;5008301;28;21177;-66
2022/07/16 01:43:20;;;;;;;2.63;2.43;;;18.20;64.40;;;;;;5010358;28;21289;-66
2022/07/16 01:45:47;;;;;;;2.77;2.57;;;18.20;64.50;;;;;;4993646;28;20628;-67
2022/07/16 01:48:15;;;;;;;2.50;2.17;;;18.20;64.70;;;;;;5012213;28;20618;-65
2022/07/16 01:50:43;;;;;;;2.60;2.40;;;18.10;64.80;;;;;;5005604;28;20697;-67
2022/07/16 01:53:10;;;;;;;3.53;2.40;;;18.10;64.90;;;;;;5009938;28;20646;-66
2022/07/16 01:55:38;;;;;;;6.37;2.40;;;18.10;64.80;;;;;;5009898;28;20704;-66
2022/07/16 01:58:06;;;;;;;2.37;2.20;;;18.10;65.40;;;;;;5010705;28;20634;-65
2022/07/16 02:00:34;;;;;;;5.60;2.20;;;18.00;64.90;;;;;;5010520;28;20733;-67
2022/07/16 02:03:02;;;;;;;2.97;2.33;;;18.00;65.00;;;;;;5005806;28;20742;-66
2022/07/16 02:05:29;;;;;;;2.50;2.40;;;18.00;65.10;;;;;;4988491;28;20657;-66
2022/07/16 02:07:56;;;;;;;3.73;2.40;;;17.90;65.30;;;;;;5003606;28;20621;-67
2022/07/16 02:10:23;;;;;;;2.43;2.27;;;17.90;65.40;;;;;;5006121;28;20672;-67
2022/07/16 02:12:50;;;;;;;7.90;3.17;;;17.90;65.70;;;;;;4991488;28;21182;-67
2022/07/16 02:15:17;;;;;;;2.77;2.57;;;17.90;65.90;;;;;;5007932;28;21070;-66
2022/07/16 02:17:44;;;;;;;5.23;2.60;;;17.80;66.00;;;;;;4993810;28;20586;-66
2022/07/16 02:20:11;;;;;;;2.80;2.60;;;17.80;66.30;;;;;;5008698;28;20637;-66
2022/07/16 02:22:38;;;;;;;2.80;2.40;;;17.70;66.40;;;;;;5009774;28;20649;-66
2022/07/16 02:25:07;;;;;;;2.90;2.70;;;17.70;66.70;;;;;;5009866;28;20708;-66
2022/07/16 02:27:34;;;;;;;2.93;2.47;;;17.60;67.10;;;;;;5009306;28;20617;-65
2022/07/16 02:30:02;;;;;;;9.33;3.20;;;17.50;67.50;;;;;;5009779;28;20640;-66
2022/07/16 02:32:29;;;;;;;3.63;3.10;;;17.40;67.70;;;;;;5007558;28;20716;-67
2022/07/16 02:34:56;;;;;;;5.20;3.60;;;17.30;67.80;;;;;;5006284;28;20636;-66
2022/07/16 02:37:24;;;;;;;7.30;3.50;;;17.20;68.10;;;;;;5007963;28;20626;-63
2022/07/16 02:39:50;;;;;;;3.97;3.57;;;17.30;68.50;;;;;;4991425;28;20650;-68
2022/07/16 02:42:17;;;;;;;8.17;4.30;;;17.20;68.60;;;;;;4985116;28;20677;-64
2022/07/16 02:44:44;;;;;;;6.03;3.80;;;17.30;68.90;;;;;;5004288;28;20729;-67
2022/07/16 02:47:10;;;;;;;6.20;3.77;;;17.30;68.60;;;;;;5009759;28;20697;-67
2022/07/16 02:49:37;;;;;;;4.60;4.20;;;17.40;68.50;;;;;;5006852;28;20636;-65
2022/07/16 02:52:04;;;;;;;3.03;2.83;;;17.40;68.40;;;;;;4991293;28;20682;-66
2022/07/16 02:54:31;;;;;;;6.10;3.60;;;17.40;68.80;;;;;;5011773;28;21210;-65
2022/07/16 02:56:58;;;;;;;4.80;2.83;;;17.30;69.10;;;;;;5012820;28;20669;-64
2022/07/16 02:59:25;;;;;;;3.70;3.40;;;17.30;69.50;;;;;;5010906;28;21163;-65
2022/07/16 03:01:51;;;;;;;3.37;2.43;;;17.20;70.00;;;;;;5028510;28;20736;-66
2022/07/16 03:04:18;;;;;;;3.00;2.80;;;17.10;70.90;;;;;;5033420;28;20616;-64
2022/07/16 03:06:45;;;;;;;4.57;3.03;;;17.10;70.40;;;;;;5006133;28;20756;-68
2022/07/16 03:09:13;;;;;;;3.10;2.90;;;17.20;70.40;;;;;;5002824;28;20626;-66
2022/07/16 03:11:40;;;;;;;4.47;3.23;;;17.20;70.30;;;;;;5008182;28;20873;-66
2022/07/16 03:14:07;;;;;;;4.40;3.10;;;17.10;70.10;;;;;;5011709;28;20976;-65
2022/07/16 03:16:33;;;;;;;5.20;3.30;;;17.10;70.40;;;;;;5012627;28;20648;-68
2022/07/16 03:19:00;;;;;;;3.20;3.00;;;17.10;70.40;;;;;;4993796;28;20641;-66
2022/07/16 03:21:27;;;;;;;3.40;3.20;;;17.10;70.60;;;;;;5011931;28;21201;-65
2022/07/16 03:23:54;;;;;;;3.23;2.93;;;17.10;71.00;;;;;;5012990;28;20653;-66
2022/07/16 03:26:20;;;;;;;3.63;3.33;;;17.10;71.40;;;;;;5011666;28;20992;-62
2022/07/16 03:28:48;;;;;;;4.30;3.70;;;17.00;71.50;;;;;;4994447;28;21212;-65
2022/07/16 03:31:17;;;;;;;4.03;3.63;;;17.00;71.80;;;;;;4987061;28;20680;-66
2022/07/16 03:33:44;;;;;;;3.67;3.37;;;17.00;72.00;;;;;;5013531;28;20664;-65
2022/07/16 03:36:11;;;;;;;3.87;3.50;;;17.00;72.40;;;;;;5008453;28;20649;-66
2022/07/16 03:41:23;;;;;;;3.87;3.50;;;16.90;72.50;;;;;;5007307;28;20998;-66
2022/07/16 03:43:50;;;;;;;4.47;4.10;;;16.90;72.70;;;;;;5011733;28;20641;-65
2022/07/16 03:46:17;;;;;;;5.97;4.60;;;16.80;72.90;;;;;;5010548;28;20622;-64
2022/07/16 03:48:44;;;;;;;6.70;5.40;;;16.80;73.30;;;;;;5011637;28;20602;-68
2022/07/16 03:51:12;;;;;;;6.90;5.60;;;16.80;72.70;;;;;;5009668;28;20693;-66
2022/07/16 03:53:39;;;;;;;10.37;5.70;;;16.90;72.40;;;;;;5013117;28;20621;-66
2022/07/16 03:56:07;;;;;;;8.33;5.00;;;16.90;72.60;;;;;;5012199;28;20708;-66
2022/07/16 03:58:34;;;;;;;6.07;4.07;;;16.90;72.50;;;;;;4994945;28;20965;-66
2022/07/16 04:01:00;;;;;;;5.87;3.90;;;16.90;73.10;;;;;;5011027;28;21213;-68
2022/07/16 04:03:27;;;;;;;4.57;3.87;;;16.90;73.50;;;;;;5009007;28;20663;-66
2022/07/16 04:05:55;;;;;;;6.07;4.30;;;16.80;73.90;;;;;;5010408;28;20618;-70
2022/07/16 04:08:21;;;;;;;6.83;4.60;;;16.80;74.10;;;;;;4993875;28;20610;-71
2022/07/16 04:10:48;;;;;;;8.20;4.93;;;17.00;73.80;;;;;;5011696;28;20753;-66
2022/07/16 04:13:15;;;;;;;8.07;4.60;;;17.10;73.50;;;;;;5012808;28;20649;-64
2022/07/16 04:15:43;;;;;;;7.40;5.00;;;17.20;72.90;;;;;;5009512;28;20811;-65
2022/07/16 04:18:10;;;;;;;7.00;4.37;;;17.40;72.30;;;;;;5012101;28;20708;-66
2022/07/16 04:20:37;;;;;;;6.17;4.73;;;17.60;70.90;;;;;;5009807;28;20677;-66
2022/07/16 04:23:03;;;;;;;8.53;4.80;;;17.80;70.00;;;;;;4994546;28;20640;-67
2022/07/16 04:25:30;;;;;;;7.60;4.50;;;18.00;69.40;;;;;;5009005;28;21197;-66
2022/07/16 04:27:57;;;;;;;5.20;4.50;;;18.10;68.90;;;;;;5010758;28;20637;-68
2022/07/16 04:30:24;;;;;;;9.07;5.47;;;18.40;68.50;;;;;;5007726;28;21122;-68
2022/07/16 04:32:51;;;;;;;6.50;4.37;;;18.60;67.30;;;;;;5011449;28;20728;-68
2022/07/16 04:35:18;;;;;;;6.13;4.67;;;18.90;66.80;;;;;;5005175;28;20656;-64
2022/07/16 04:37:45;;;;;;;8.63;4.43;;;19.00;66.70;;;;;;5006564;28;20594;-66
2022/07/16 04:40:13;;;;;;;7.00;4.67;;;19.20;66.70;;;;;;5010078;28;20625;-66
2022/07/16 04:42:40;;;;;;;4.50;4.07;;;19.20;66.40;;;;;;5011874;28;20696;-67
2022/07/16 04:45:09;;;;;;;5.57;4.40;;;19.20;67.00;;;;;;4991775;28;20740;-66
2022/07/16 04:47:36;;;;;;;7.33;4.27;;;19.30;67.10;;;;;;5010590;28;20624;-68
2022/07/16 04:50:04;;;;;;;5.53;4.13;;;19.40;67.10;;;;;;5001767;28;20661;-66
2022/07/16 04:52:31;;;;;;;7.07;4.63;;;19.60;66.70;;;;;;5007131;28;20678;-67
2022/07/16 04:54:58;;;;;;;5.40;4.37;;;19.70;67.10;;;;;;5010300;28;20594;-67
2022/07/16 04:57:25;;;;;;;6.73;4.23;;;19.70;67.30;;;;;;5009659;28;21221;-66
2022/07/16 04:59:53;;;;;;;4.03;3.67;;;20.10;66.70;;;;;;5011263;28;20620;-66
2022/07/16 05:05:06;;;;;;;4.07;3.67;;;20.40;64.70;;;;;;5001796;28;20673;-66
2022/07/16 05:07:34;;;;;;;7.03;3.73;;;20.60;64.10;;;;;;5008813;28;20625;-66
2022/07/16 05:10:01;;;;;;;4.30;3.20;;;20.70;63.80;;;;;;5008609;28;20588;-65
2022/07/16 05:12:27;;;;;;;3.40;3.10;;;21.00;63.40;;;;;;5009817;28;20679;-67
2022/07/16 05:14:54;;;;;;;3.57;3.03;;;21.30;62.80;;;;;;5009892;28;20601;-69
2022/07/16 05:17:21;;;;;;;3.60;3.30;;;21.60;61.80;;;;;;5009946;28;21223;-64
2022/07/16 05:19:48;;;;;;;5.37;3.20;;;21.70;61.50;;;;;;4992344;28;20625;-67
2022/07/16 05:22:15;;;;;;;3.10;2.90;;;21.90;61.20;;;;;;5005613;28;21019;-64
2022/07/16 05:24:42;;;;;;;3.20;3.00;;;22.20;61.10;;;;;;5009803;28;20705;-66
2022/07/16 05:27:09;;;;;;;3.20;2.93;;;22.50;60.40;;;;;;5007433;28;21035;-67
2022/07/16 05:29:35;;;;;;;3.40;3.10;;;22.60;59.20;;;;;;4991334;28;20646;-66
2022/07/16 05:32:02;;;;;;;3.40;3.10;;;22.70;58.40;;;;;;5011137;28;21030;-66
2022/07/16 05:34:29;;;;;;;3.13;2.83;;;22.70;58.60;;;;;;5009858;28;20641;-66
2022/07/16 05:36:56;;;;;;;4.80;3.40;;;22.70;58.30;;;;;;4989096;28;20713;-66
2022/07/16 05:39:29;;;;;;;3.50;3.20;;;22.80;58.50;;;;;;5005647;28;20625;-66
2022/07/16 05:41:56;;;;;;;2.97;2.63;;;22.80;58.80;;;;;;5020478;22;20657;-65
2022/07/16 05:44:23;;;;;;;2.67;2.47;;;23.10;57.80;;;;;;5008411;28;20990;-62
2022/07/16 05:46:50;;;;;;;2.80;2.60;;;23.30;57.10;;;;;;5010879;28;20645;-59
2022/07/16 05:49:17;;;;;;;2.70;2.60;;;23.60;57.00;;;;;;5008652;28;21232;-63
2022/07/16 05:51:44;;;;;;;3.17;2.77;;;23.80;56.40;;;;;;5006823;28;20654;-61
2022/07/16 05:54:10;;;;;;;2.50;2.40;;;24.10;56.00;;;;;;5008249;28;21022;-65
2022/07/16 05:56:37;;;;;;;2.37;2.27;;;24.30;55.60;;;;;;4999784;28;20621;-64
2022/07/16 05:59:04;;;;;;;4.40;2.70;;;24.60;55.40;;;;;;4990718;28;20614;-63
2022/07/16 06:01:31;;;;;;;3.03;2.83;;;24.80;54.90;;;;;;4986356;28;20978;-64
2022/07/16 06:03:58;;;;;;;3.93;2.80;;;25.00;54.60;;;;;;4990374;28;20646;-64
2022/07/16 06:06:25;;;;;;;2.60;2.40;;;25.20;54.40;;;;;;4988471;28;20809;-64
2022/07/16 06:08:52;;;;;;;2.43;2.33;;;25.50;54.10;;;;;;5008877;28;20629;-64
2022/07/16 06:11:18;;;;;;;3.20;2.90;;;26.00;53.40;;;;;;5009956;28;21044;-63
2022/07/16 06:13:45;;;;;;;3.00;2.80;;;26.40;52.80;;;;;;5011109;28;20646;-66
2022/07/16 06:16:12;;;;;;;3.27;2.80;;;27.00;52.30;;;;;;5004501;28;20642;-64
2022/07/16 06:18:41;;;;;;;1.93;1.83;;;27.70;51.70;;;;;;4990921;28;20629;-64
2022/07/16 06:21:08;;;;;;;;;;;28.20;50.20;;;;;;4989791;28;20481;-63
2022/07/16 06:23:35;;;;;;;;;;;28.50;49.30;;;;;;4991549;28;20372;-63
2022/07/16 06:26:02;;;;;;;2.37;2.27;;;29.00;49.00;;;;;;4990356;28;20264;-63
2022/07/16 06:28:29;;;;;;;2.20;2.10;;;29.70;48.30;;;;;;4993674;28;20599;-64
2022/07/16 06:30:55;;;;;;;2.00;1.80;;;30.20;47.30;;;;;;5005596;28;20648;-62
2022/07/16 06:34:21;;;;;;;2.47;2.30;;;30.60;46.80;;;;;;4927358;27;20822;-64
2022/07/16 06:36:48;;;;;;;2.43;2.23;;;31.50;45.80;;;;;;4999679;28;20634;-63
2022/07/16 06:39:14;;;;;;;2.20;2.10;;;32.10;45.20;;;;;;5005782;28;20700;-64
2022/07/16 06:41:41;;;;;;;2.20;2.10;;;32.80;44.60;;;;;;5001304;28;20600;-64
2022/07/16 06:44:09;;;;;;;2.20;2.00;;;33.50;44.00;;;;;;5006591;28;20658;-67
2022/07/16 06:46:36;;;;;;;2.47;2.33;;;34.10;43.50;;;;;;5008026;28;20590;-64
2022/07/16 06:49:03;;;;;;;2.50;2.30;;;34.60;42.70;;;;;;5005177;28;20644;-64
2022/07/16 06:51:30;;;;;;;2.27;2.07;;;35.30;42.10;;;;;;5004152;28;21328;-63
2022/07/16 06:53:57;;;;;;;2.77;2.30;;;36.20;41.60;;;;;;4999515;28;20671;-64
2022/07/16 06:56:23;;;;;;;1.83;1.73;;;36.80;40.90;;;;;;4995137;28;20632;-65
2022/07/16 06:58:51;;;;;;;2.60;2.40;;;37.30;40.00;;;;;;5000306;28;20661;-65
2022/07/16 07:01:17;;;;;;;2.33;2.23;;;37.50;39.80;;;;;;4987897;28;20621;-64
2022/07/16 07:03:44;;;;;;;5.23;2.10;;;38.10;39.60;;;;;;4999145;28;21309;-62
2022/07/16 07:06:11;;;;;;;2.20;2.00;;;38.70;39.00;;;;;;5001766;28;20749;-65
2022/07/16 07:08:38;;;;;;;2.13;2.03;;;39.40;38.80;;;;;;5006426;28;20649;-64
2022/07/16 07:11:08;;;;;;;1.70;1.70;;;40.00;38.20;;;;;;5006878;28;20849;-65
2022/07/16 07:13:37;;;;;;;2.50;2.20;;;40.50;37.70;;;;;;5008500;28;20666;-64
2022/07/16 07:16:05;;;;;;;3.23;2.40;;;41.20;37.20;;;;;;4987521;28;20991;-64
2022/07/16 07:18:33;;;;;;;3.03;1.93;;;41.70;36.10;;;;;;4992549;28;20621;-64
2022/07/16 07:21:01;;;;;;;1.67;1.53;;;42.20;35.90;;;;;;5002805;28;20639;-65
2022/07/16 07:23:27;;;;;;;2.00;1.90;;;42.90;35.50;;;;;;4996781;28;21000;-65
2022/07/16 07:25:55;;;;;;;3.37;2.50;;;43.10;35.10;;;;;;5006397;28;21078;-64
2022/07/16 07:28:22;;;;;;;2.13;2.03;;;43.60;34.40;;;;;;5004582;28;21108;-65
2022/07/16 07:30:49;;;;;;;2.57;1.77;;;43.40;34.50;;;;;;5007237;28;21250;-64
2022/07/16 07:33:15;;;;;;;1.83;1.73;;;43.60;34.50;;;;;;5004917;28;21036;-64
2022/07/16 07:35:42;;;;;;;1.90;1.80;;;44.10;34.20;;;;;;5004175;28;20646;-64
2022/07/16 07:38:09;;;;;;;1.90;1.80;;;44.70;33.70;;;;;;5005805;28;21027;-65
2022/07/16 07:40:40;;;;;;;1.80;1.70;;;45.00;33.60;;;;;;5005997;28;20605;-65
2022/07/16 07:43:06;;;;;;;4.63;1.87;;;44.90;33.30;;;;;;5005910;28;20648;-65
2022/07/16 07:45:33;;;;;;;1.50;1.50;;;45.40;33.20;;;;;;4995693;28;20626;-67
2022/07/16 07:48:00;;;;;;;1.80;1.70;;;45.50;32.80;;;;;;4993004;28;20642;-64
2022/07/16 07:50:27;;;;;;;1.67;1.57;;;45.60;32.70;;;;;;4993599;28;20999;-65
2022/07/16 07:52:53;;;;;;;1.80;1.80;;;45.90;32.50;;;;;;4993737;28;21218;-67
2022/07/16 07:55:20;;;;;;;2.57;1.63;;;46.10;32.40;;;;;;4993240;28;20622;-65
2022/07/16 07:57:52;;;;;;;1.60;1.60;;;46.40;32.40;;;;;;4982385;28;20638;-65
2022/07/16 08:00:19;;;;;;;2.00;1.90;;;46.80;31.80;;;;;;4991927;28;20709;-65
2022/07/16 08:02:46;;;;;;;2.10;2.00;;;47.40;31.60;;;;;;4993223;28;20761;-67
2022/07/16 08:05:14;;;;;;;2.00;1.90;;;47.70;31.40;;;;;;4983690;28;20739;-62
2022/07/16 08:07:41;;;;;;;1.40;1.40;;;47.70;31.40;;;;;;4988133;28;20668;-63
2022/07/16 08:10:08;;;;;;;1.70;1.60;;;47.90;31.20;;;;;;4991867;28;20722;-63
2022/07/16 08:12:35;;;;;;;1.80;1.70;;;47.80;31.20;;;;;;4988789;28;20666;-64
2022/07/16 08:15:03;;;;;;;1.60;1.53;;;47.70;31.10;;;;;;4993283;28;20689;-66
2022/07/16 08:17:37;;;;;;;1.80;1.70;;;47.50;31.20;;;;;;4990215;28;20615;-65
2022/07/16 08:20:06;;;;;;;1.60;1.50;;;47.70;31.90;;;;;;4991416;28;20731;-63
2022/07/16 08:22:33;;;;;;;1.63;1.57;;;48.00;31.00;;;;;;4991186;28;20671;-64
2022/07/16 08:27:45;;;;;;;1.67;1.57;;;46.10;31.70;;;;;;4988469;28;20627;-64
2022/07/16 08:30:12;;;;;;;1.63;1.53;;;46.80;31.20;;;;;;4987725;28;20637;-64
2022/07/16 08:32:39;;;;;;;1.93;1.70;;;47.10;31.00;;;;;;4972563;28;20662;-65
2022/07/16 08:35:06;;;;;;;1.50;1.40;;;47.30;30.90;;;;;;4987535;28;20634;-64
2022/07/16 08:37:36;;;;;;;2.33;1.80;;;47.60;30.60;;;;;;4991133;28;20635;-67
2022/07/16 08:40:06;;;;;;;1.57;1.43;;;48.20;30.60;;;;;;4990304;28;20629;-64
2022/07/16 08:42:34;;;;;;;1.50;1.47;;;48.60;30.40;;;;;;4990053;28;20749;-64
2022/07/16 08:45:03;;;;;;;1.50;1.50;;;49.00;30.40;;;;;;4993546;28;20623;-66
2022/07/16 08:47:31;;;;;;;16.83;15.17;;;49.00;30.00;;;;;;4985329;28;20638;-66
2022/07/16 08:49:59;;;;;;;4.57;2.53;;;48.20;30.20;;;;;;4990571;28;20621;-65
2022/07/16 08:52:28;;;;;;;1.90;1.80;;;48.00;30.50;;;;;;4990490;28;20664;-65
2022/07/16 08:54:56;;;;;;;1.70;1.60;;;48.20;30.30;;;;;;4992978;28;20717;-65
2022/07/16 08:57:24;;;;;;;1.57;1.57;;;48.10;30.20;;;;;;4989573;28;20626;-69
2022/07/16 08:59:52;;;;;;;1.63;1.60;;;48.60;30.10;;;;;;4985663;28;20611;-65
2022/07/16 09:02:20;;;;;;;1.40;1.40;;;49.30;29.90;;;;;;4991171;28;20669;-67
2022/07/16 09:04:47;;;;;;;4.20;1.20;;;49.40;29.90;;;;;;4988884;28;20646;-64
2022/07/16 09:07:16;;;;;;;2.30;1.60;;;49.10;29.80;;;;;;4992065;28;20630;-65
2022/07/16 09:09:44;;;;;;;1.70;1.50;;;48.50;29.80;;;;;;4986898;28;20638;-65
2022/07/16 09:12:30;;;;;;;1.27;1.27;;;47.90;29.80;;;;;;4990407;28;20659;-67
2022/07/16 09:14:57;;;;;;;1.57;1.40;;;48.20;30.00;;;;;;4989932;28;20753;-66
2022/07/16 09:17:23;;;;;;;1.80;1.80;;;49.20;29.80;;;;;;4990633;28;20617;-66
2022/07/16 09:19:50;;;;;;;1.73;1.63;;;49.90;29.70;;;;;;4990803;28;20962;-66
2022/07/16 09:22:17;;;;;;;1.97;1.80;;;50.10;29.60;;;;;;4981978;28;20669;-64
2022/07/16 09:24:51;;;;;;;2.50;2.03;;;49.90;29.60;;;;;;4985480;28;21177;-65
2022/07/16 09:27:23;;;;;;;1.90;1.80;;;48.30;29.80;;;;;;4979164;28;21239;-67
2022/07/16 09:30:02;;;;;;;1.60;1.50;;;49.00;29.90;;;;;;4991749;28;20615;-66
2022/07/16 09:32:32;;;;;;;1.73;1.63;;;49.90;29.70;;;;;;4988107;28;20792;-66
2022/07/16 09:35:04;;;;;;;1.77;1.70;;;49.30;29.60;;;;;;4991799;28;20662;-66
2022/07/16 09:37:56;;;;;;;2.50;2.10;;;49.70;29.50;;;;;;4984094;28;20642;-64
2022/07/16 09:40:28;;;;;;;1.60;1.50;;;50.40;29.40;;;;;;4987405;28;21197;-66
2022/07/16 09:42:55;;;;;;;1.43;1.40;;;51.30;29.30;;;;;;4989393;28;21077;-65
2022/07/16 09:45:23;;;;;;;1.50;1.50;;;51.90;29.50;;;;;;4989836;28;20697;-66
2022/07/16 09:47:50;;;;;;;1.60;1.60;;;52.20;28.80;;;;;;4988569;28;21008;-61
2022/07/16 09:50:17;;;;;;;1.90;1.80;;;52.60;29.30;;;;;;4989138;28;20657;-65
2022/07/16 09:52:44;;;;;;;1.50;1.50;;;51.80;28.90;;;;;;4992219;28;20638;-67
2022/07/16 09:55:11;;;;;;;1.63;1.53;;;51.30;28.90;;;;;;4989764;28;20652;-65
2022/07/16 09:57:40;;;;;;;1.60;1.60;;;49.90;29.00;;;;;;4990625;28;20626;-65
2022/07/16 10:00:08;;;;;;;1.60;1.53;;;49.00;29.10;;;;;;4987089;28;20643;-67
2022/07/16 10:02:35;;;;;;;1.90;1.80;;;49.20;29.20;;;;;;4983660;28;20661;-66
2022/07/16 10:05:02;;;;;;;1.90;1.80;;;49.80;29.10;;;;;;4990980;28;20625;-66
2022/07/16 10:07:32;;;;;;;1.90;1.80;;;48.20;28.80;;;;;;4989456;28;20768;-65
2022/07/16 10:10:00;;;;;;;1.70;1.60;;;47.50;29.00;;;;;;4990531;28;20631;-65
2022/07/16 10:12:29;;;;;;;1.73;1.63;;;47.50;29.00;;;;;;4989462;28;20659;-66
2022/07/16 10:14:57;;;;;;;1.73;1.73;;;45.00;29.40;;;;;;4991103;28;20667;-68
2022/07/16 10:17:37;;;;;;;2.17;1.90;;;43.30;30.30;;;;;;4986751;28;20649;-65
2022/07/16 10:20:08;;;;;;;1.53;1.50;;;42.50;30.80;;;;;;4985939;28;21225;-66
2022/07/16 10:22:44;;;;;;;1.60;1.50;;;42.30;31.10;;;;;;4989085;28;20975;-65
2022/07/16 10:25:11;;;;;;;3.70;1.77;;;41.80;31.50;;;;;;4992160;28;20606;-65
2022/07/16 10:27:38;;;;;;;1.70;1.60;;;40.00;32.50;;;;;;4991910;28;20642;-65
2022/07/16 10:30:23;;;;;;;1.73;1.63;;;39.00;33.20;;;;;;4991348;28;20629;-65
2022/07/16 10:32:59;;;;;;;1.90;1.80;;;37.40;34.00;;;;;;4988071;28;21057;-66
2022/07/16 10:35:37;;;;;;;1.60;1.50;;;36.50;34.80;;;;;;4990533;28;21467;-65
2022/07/16 10:38:08;;;;;;;5.63;1.93;;;35.70;35.50;;;;;;4988262;28;20681;-65
2022/07/16 10:41:04;;;;;;;2.43;1.70;;;34.70;36.50;;;;;;4990456;28;20995;-68
2022/07/16 10:43:31;;;;;;;1.70;1.60;;;34.00;36.70;;;;;;4988631;28;21356;-65
2022/07/16 10:46:01;;;;;;;2.10;1.83;;;33.10;37.40;;;;;;4990888;28;20198;-66
2022/07/16 10:48:51;;;;;;;1.80;1.70;;;32.70;37.80;;;;;;4983878;28;20642;-67
2022/07/16 10:51:25;;;;;;;1.80;1.70;;;32.30;38.30;;;;;;4988056;28;20726;-68
2022/07/16 10:53:58;;;;;;;2.90;2.10;;;32.20;38.20;;;;;;4971200;28;20754;-67
2022/07/16 10:56:31;;;;;;;2.20;2.10;;;31.70;38.70;;;;;;4969459;28;21044;-65
2022/07/16 10:58:58;;;;;;;2.70;1.33;;;31.10;39.50;;;;;;4985867;28;20623;-65
2022/07/16 11:01:25;;;;;;;2.17;1.70;;;30.90;39.90;;;;;;4989776;28;20643;-65
2022/07/16 11:03:53;;;;;;;1.60;1.50;;;30.90;39.90;;;;;;4989683;28;21253;-64
2022/07/16 11:06:24;;;;;;;2.50;2.07;;;30.90;39.70;;;;;;4986348;28;20647;-67
2022/07/16 11:08:57;;;;;;;1.70;1.60;;;30.70;40.00;;;;;;4989082;28;20653;-64
2022/07/16 11:11:38;;;;;;;1.73;1.63;;;30.30;40.40;;;;;;4989230;28;20649;-65
2022/07/16 11:14:07;;;;;;;4.87;1.70;;;30.10;40.60;;;;;;4989935;28;21432;-65
2022/07/16 11:16:34;;;;;;;2.03;1.93;;;30.10;41.10;;;;;;4989087;28;20658;-65
2022/07/16 11:19:03;;;;;;;2.20;2.10;;;29.80;41.00;;;;;;4989514;28;20703;-66
2022/07/16 11:21:31;;;;;;;2.27;2.10;;;29.70;41.10;;;;;;4991789;28;20638;-66
2022/07/16 11:24:00;;;;;;;2.20;2.00;;;29.50;41.40;;;;;;4994169;28;20704;-64
2022/07/16 11:26:28;;;;;;;4.00;1.70;;;29.30;41.70;;;;;;4993006;28;20734;-65
2022/07/16 11:29:00;;;;;;;5.50;2.43;;;29.10;42.00;;;;;;4986106;28;21306;-65
2022/07/16 11:31:36;;;;;;;1.77;1.67;;;28.90;42.00;;;;;;4980501;28;20638;-64
2022/07/16 11:34:08;;;;;;;2.77;1.93;;;28.50;42.30;;;;;;4992927;28;20685;-64
2022/07/16 11:36:39;;;;;;;3.47;2.30;;;28.40;42.80;;;;;;4991959;28;20614;-64
2022/07/16 11:39:17;;;;;;;2.13;1.90;;;28.40;42.90;;;;;;4992188;28;20634;-64
2022/07/16 11:41:46;;;;;;;1.70;1.60;;;28.50;42.60;;;;;;4993168;28;20582;-65
2022/07/16 11:44:19;;;;;;;2.00;1.90;;;28.60;42.50;;;;;;4989440;23;20695;-68
2022/07/16 11:46:57;;;;;;;3.07;1.80;;;28.30;42.60;;;;;;4970748;28;20649;-68
2022/07/16 11:49:31;;;;;;;2.37;2.27;;;28.30;42.80;;;;;;4973542;28;20663;-68
2022/07/16 11:52:04;;;;;;;1.60;1.60;;;28.30;42.80;;;;;;4967889;28;20637;-67
2022/07/16 11:54:39;;;;;;;2.20;2.00;;;28.30;42.80;;;;;;4972680;28;20679;-70
2022/07/16 11:57:08;;;;;;;2.43;2.20;;;28.30;43.60;;;;;;4974041;28;20634;-68
2022/07/16 11:59:42;;;;;;;3.20;1.70;;;28.30;43.40;;;;;;4979830;28;20647;-67
2022/07/16 12:02:13;;;;;;;2.00;1.90;;;28.00;43.10;;;;;;4972560;28;20639;-68
2022/07/16 12:04:44;;;;;;;2.90;2.30;;;28.00;43.60;;;;;;4971120;28;20670;-68
2022/07/16 12:07:25;;;;;;;2.33;2.23;;;27.70;43.20;;;;;;4973384;28;20650;-69
2022/07/16 12:09:54;;;;;;;2.77;2.07;;;27.60;43.10;;;;;;4972017;28;20643;-68
2022/07/16 12:12:27;;;;;;;2.83;2.10;;;27.60;43.60;;;;;;4973899;28;20607;-69
2022/07/16 12:14:59;;;;;;;3.50;1.50;;;27.50;44.10;;;;;;4971732;28;21277;-70
2022/07/16 12:17:45;;;;;;;2.00;1.87;;;27.60;44.00;;;;;;4971437;28;20646;-68
2022/07/16 12:20:21;;;;;;;2.30;2.20;;;27.70;43.80;;;;;;4967186;28;24456;-68
2022/07/16 12:22:58;;;;;;;3.30;2.10;;;27.70;43.80;;;;;;4971485;28;20307;-68
2022/07/16 12:25:28;;;;;;;3.00;1.90;;;27.80;43.30;;;;;;4969956;28;20665;-68
2022/07/16 12:27:59;;;;;;;2.20;1.30;;;27.90;43.40;;;;;;4956359;28;21097;-68
2022/07/16 12:30:56;;;;;;;2.30;1.90;;;27.80;43.20;;;;;;4972842;28;20694;-70
2022/07/16 12:33:29;;;;;;;1.77;1.70;;;27.70;44.00;;;;;;4996674;28;20679;-68
2022/07/16 12:36:04;;;;;;;2.60;2.20;;;27.60;43.60;;;;;;4973575;28;21116;-68
2022/07/16 12:38:52;;;;;;;1.80;1.70;;;27.60;43.60;;;;;;4970778;28;20634;-68
2022/07/16 12:41:23;;;;;;;11.13;8.00;;;27.50;43.80;;;;;;4972998;28;21132;-68
2022/07/16 12:43:55;;;;;;;3.73;2.37;;;27.70;44.00;;;;;;4971647;28;21247;-68
2022/07/16 12:46:23;;;;;;;2.60;2.17;;;27.90;44.10;;;;;;4973086;28;20678;-66
2022/07/16 12:48:57;;;;;;;2.40;2.20;;;28.00;43.60;;;;;;4970392;28;21004;-68
2022/07/16 12:51:30;;;;;;;1.77;1.67;;;28.00;43.10;;;;;;4971610;28;20647;-70
2022/07/16 12:53:59;;;;;;;3.17;1.70;;;28.10;43.10;;;;;;4972261;28;20671;-67
2022/07/16 12:59:14;;;;;;;2.10;2.00;;;28.00;42.90;;;;;;4969574;28;20706;-68
2022/07/16 13:01:42;;;;;;;1.97;1.87;;;28.00;43.10;;;;;;4971223;28;20646;-68
2022/07/16 13:04:09;;;;;;;1.90;1.80;;;27.90;43.10;;;;;;4972022;28;20652;-68
2022/07/16 13:06:37;;;;;;;2.80;2.00;;;27.90;43.80;;;;;;4971610;28;21226;-68